Cuaca Aktual Bandara Mali

Waktu Pengamatan : 2021-09-19 23:00:00 WITA


NIGHT-CLOUDY
Berawan
Suhu Udara
27 °C
Titik Embun
23 °C

Tekanan Udara 1013 hPa
Jarak Pandang 8.0 km

Angin
Tenang
METAR Terkini : METAR WATM 191500Z 00000KT 8000 FEW020 BKN100 27/23 Q1013|NOSIG=